sensor_id;sensor_type;location;lat;lon;timestamp;pressure;altitude;pressure_sealevel;temperature;humidity
73338;BME280;61575;49.908;35.556;2024-03-07T00:02:53;99892.41;;;-2.21;71.89
73338;BME280;61575;49.908;35.556;2024-03-07T00:05:56;99894.66;;;-2.13;72.02
73338;BME280;61575;49.908;35.556;2024-03-07T00:08:58;99890.06;;;-2.10;71.93
73338;BME280;61575;49.908;35.556;2024-03-07T00:12:01;99897.88;;;-2.08;71.81
73338;BME280;61575;49.908;35.556;2024-03-07T00:15:05;99888.28;;;-2.09;71.61
73338;BME280;61575;49.908;35.556;2024-03-07T00:18:07;99898.41;;;-2.01;72.07
73338;BME280;61575;49.908;35.556;2024-03-07T00:21:09;99899.34;;;-2.02;71.83
73338;BME280;61575;49.908;35.556;2024-03-07T00:24:11;99888.66;;;-1.99;71.94
73338;BME280;61575;49.908;35.556;2024-03-07T00:27:14;99888.66;;;-1.99;72.03
73338;BME280;61575;49.908;35.556;2024-03-07T00:30:16;99889.19;;;-1.93;71.88
73338;BME280;61575;49.908;35.556;2024-03-07T00:33:21;99891.13;;;-1.96;71.72
73338;BME280;61575;49.908;35.556;2024-03-07T00:36:24;99892.81;;;-1.95;71.96
73338;BME280;61575;49.908;35.556;2024-03-07T00:39:27;99890.97;;;-1.93;71.95
73338;BME280;61575;49.908;35.556;2024-03-07T00:42:29;99890.97;;;-1.93;72.26
73338;BME280;61575;49.908;35.556;2024-03-07T00:45:31;99890.03;;;-1.92;71.81
73338;BME280;61575;49.908;35.556;2024-03-07T00:48:34;99887.22;;;-1.89;72.20
73338;BME280;61575;49.908;35.556;2024-03-07T00:51:37;99892.50;;;-1.89;71.98
73338;BME280;61575;49.908;35.556;2024-03-07T00:54:42;99885.28;;;-1.86;71.93
73338;BME280;61575;49.908;35.556;2024-03-07T00:57:44;99889.38;;;-1.80;71.70
73338;BME280;61575;49.908;35.556;2024-03-07T01:00:47;99886.22;;;-1.87;72.06
73338;BME280;61575;49.908;35.556;2024-03-07T01:03:49;99880.94;;;-1.87;71.97
73338;BME280;61575;49.908;35.556;2024-03-07T01:06:51;99872.78;;;-1.98;71.89
73338;BME280;61575;49.908;35.556;2024-03-07T01:09:53;99877.97;;;-1.96;71.67
73338;BME280;61575;49.908;35.556;2024-03-07T01:12:56;99876.03;;;-1.93;71.62
73338;BME280;61575;49.908;35.556;2024-03-07T01:16:02;99883.22;;;-1.96;71.78
73338;BME280;61575;49.908;35.556;2024-03-07T01:19:04;99880.44;;;-1.93;71.74
73338;BME280;61575;49.908;35.556;2024-03-07T01:22:08;99885.88;;;-1.96;71.44
73338;BME280;61575;49.908;35.556;2024-03-07T01:25:11;99876.88;;;-1.92;71.76
73338;BME280;61575;49.908;35.556;2024-03-07T01:28:14;99880.19;;;-1.89;71.51
73338;BME280;61575;49.908;35.556;2024-03-07T01:31:17;99885.38;;;-1.87;71.50
73338;BME280;61575;49.908;35.556;2024-03-07T01:34:20;99888.09;;;-1.89;71.87
73338;BME280;61575;49.908;35.556;2024-03-07T01:37:22;99878.56;;;-1.91;71.58
73338;BME280;61575;49.908;35.556;2024-03-07T01:40:23;99884.53;;;-1.88;71.58
73338;BME280;61575;49.908;35.556;2024-03-07T01:43:25;99875.78;;;-1.88;71.58
73338;BME280;61575;49.908;35.556;2024-03-07T01:46:28;99874.91;;;-1.89;71.36
73338;BME280;61575;49.908;35.556;2024-03-07T01:49:31;99880.94;;;-1.87;71.43
73338;BME280;61575;49.908;35.556;2024-03-07T01:52:36;99881.56;;;-1.82;71.85
73338;BME280;61575;49.908;35.556;2024-03-07T01:55:38;99876.22;;;-1.80;71.78
73338;BME280;61575;49.908;35.556;2024-03-07T01:58:40;99885.81;;;-1.79;71.85
73338;BME280;61575;49.908;35.556;2024-03-07T02:01:43;99876.97;;;-1.78;71.57
73338;BME280;61575;49.908;35.556;2024-03-07T02:04:48;99888.09;;;-1.73;71.61
73338;BME280;61575;49.908;35.556;2024-03-07T02:07:51;99882.50;;;-1.83;71.90
73338;BME280;61575;49.908;35.556;2024-03-07T02:10:53;99879.41;;;-1.91;72.03
73338;BME280;61575;49.908;35.556;2024-03-07T02:13:55;99883.41;;;-1.84;71.48
73338;BME280;61575;49.908;35.556;2024-03-07T02:16:57;99886.91;;;-1.83;71.86
73338;BME280;61575;49.908;35.556;2024-03-07T02:19:59;99897.25;;;-1.80;71.48
73338;BME280;61575;49.908;35.556;2024-03-07T02:23:01;99890.38;;;-1.83;71.57
73338;BME280;61575;49.908;35.556;2024-03-07T02:26:04;99890.22;;;-1.80;71.53
73338;BME280;61575;49.908;35.556;2024-03-07T02:29:06;99887.41;;;-1.77;71.48
73338;BME280;61575;49.908;35.556;2024-03-07T02:32:08;99894.13;;;-1.71;71.34
73338;BME280;61575;49.908;35.556;2024-03-07T02:35:11;99888.63;;;-1.66;71.55
73338;BME280;61575;49.908;35.556;2024-03-07T02:38:14;99888.88;;;-1.71;71.50
73338;BME280;61575;49.908;35.556;2024-03-07T02:41:16;99898.72;;;-1.74;71.52
73338;BME280;61575;49.908;35.556;2024-03-07T02:44:18;99898.97;;;-1.79;71.79
73338;BME280;61575;49.908;35.556;2024-03-07T02:47:21;99898.97;;;-1.79;71.77
73338;BME280;61575;49.908;35.556;2024-03-07T02:50:25;99896.59;;;-1.84;71.47
73338;BME280;61575;49.908;35.556;2024-03-07T02:53:28;99902.19;;;-1.90;71.73
73338;BME280;61575;49.908;35.556;2024-03-07T02:56:30;99895.88;;;-2.03;71.62
73338;BME280;61575;49.908;35.556;2024-03-07T02:59:32;99898.09;;;-1.95;71.64
73338;BME280;61575;49.908;35.556;2024-03-07T03:02:34;99898.09;;;-1.95;71.28
73338;BME280;61575;49.908;35.556;2024-03-07T03:05:36;99897.25;;;-1.96;71.38
73338;BME280;61575;49.908;35.556;2024-03-07T03:08:38;99906.91;;;-1.96;71.62
73338;BME280;61575;49.908;35.556;2024-03-07T03:11:40;99898.25;;;-1.98;71.53
73338;BME280;61575;49.908;35.556;2024-03-07T03:14:42;99901.72;;;-1.98;72.01
73338;BME280;61575;49.908;35.556;2024-03-07T03:17:45;99901.66;;;-1.96;71.88
73338;BME280;61575;49.908;35.556;2024-03-07T03:20:49;99905.91;;;-1.94;71.33
73338;BME280;61575;49.908;35.556;2024-03-07T03:23:51;99913.97;;;-1.97;71.49
73338;BME280;61575;49.908;35.556;2024-03-07T03:26:55;99913.13;;;-1.97;71.54
73338;BME280;61575;49.908;35.556;2024-03-07T03:29:57;99916.28;;;-1.91;71.42
73338;BME280;61575;49.908;35.556;2024-03-07T03:33:02;99913.38;;;-1.86;71.19
73338;BME280;61575;49.908;35.556;2024-03-07T03:36:04;99911.19;;;-1.78;71.38
73338;BME280;61575;49.908;35.556;2024-03-07T03:39:06;99907.03;;;-1.82;71.21
73338;BME280;61575;49.908;35.556;2024-03-07T03:42:09;99911.69;;;-1.87;71.22
73338;BME280;61575;49.908;35.556;2024-03-07T03:45:11;99916.06;;;-2.03;71.00
73338;BME280;61575;49.908;35.556;2024-03-07T03:48:17;99919.03;;;-2.10;70.98
73338;BME280;61575;49.908;35.556;2024-03-07T03:51:19;99914.28;;;-2.03;70.77
73338;BME280;61575;49.908;35.556;2024-03-07T03:54:23;99924.72;;;-2.01;71.20
73338;BME280;61575;49.908;35.556;2024-03-07T03:57:25;99918.69;;;-2.03;71.13
73338;BME280;61575;49.908;35.556;2024-03-07T04:00:27;99923.19;;;-2.05;70.75
73338;BME280;61575;49.908;35.556;2024-03-07T04:03:30;99931.66;;;-2.16;71.21
73338;BME280;61575;49.908;35.556;2024-03-07T04:06:32;99927.06;;;-2.13;70.80
73338;BME280;61575;49.908;35.556;2024-03-07T04:09:34;99933.88;;;-2.09;71.29
73338;BME280;61575;49.908;35.556;2024-03-07T04:12:37;99932.00;;;-2.06;71.36
73338;BME280;61575;49.908;35.556;2024-03-07T04:15:40;99937.28;;;-2.06;71.02
73338;BME280;61575;49.908;35.556;2024-03-07T04:18:45;99934.66;;;-2.06;71.20
73338;BME280;61575;49.908;35.556;2024-03-07T04:21:47;99935.56;;;-2.08;70.99
73338;BME280;61575;49.908;35.556;2024-03-07T04:24:49;99946.19;;;-2.09;70.77
73338;BME280;61575;49.908;35.556;2024-03-07T04:27:55;99933.88;;;-2.09;70.66
73338;BME280;61575;49.908;35.556;2024-03-07T04:30:57;99944.41;;;-2.09;71.24
73338;BME280;61575;49.908;35.556;2024-03-07T04:33:59;99945.00;;;-2.03;71.08
73338;BME280;61575;49.908;35.556;2024-03-07T04:37:01;99945.16;;;-2.06;70.88
73338;BME280;61575;49.908;35.556;2024-03-07T04:40:08;99952.22;;;-2.07;70.59
73338;BME280;61575;49.908;35.556;2024-03-07T04:43:20;99942.06;;;-1.97;70.90
73338;BME280;61575;49.908;35.556;2024-03-07T04:46:22;99945.38;;;-1.94;70.58
73338;BME280;61575;49.908;35.556;2024-03-07T04:49:25;99947.31;;;-1.97;70.51
73338;BME280;61575;49.908;35.556;2024-03-07T04:52:27;99950.72;;;-1.95;70.34
73338;BME280;61575;49.908;35.556;2024-03-07T04:55:30;99948.34;;;-2.00;70.33
73338;BME280;61575;49.908;35.556;2024-03-07T04:58:32;99956.16;;;-1.98;70.11
73338;BME280;61575;49.908;35.556;2024-03-07T05:01:34;99957.06;;;-1.99;70.17
73338;BME280;61575;49.908;35.556;2024-03-07T05:04:36;99958.16;;;-2.03;70.58
73338;BME280;61575;49.908;35.556;2024-03-07T05:07:39;99958.78;;;-1.98;70.76
73338;BME280;61575;49.908;35.556;2024-03-07T05:10:42;99962.03;;;-1.93;70.48
73338;BME280;61575;49.908;35.556;2024-03-07T05:13:44;99961.09;;;-1.92;70.24
73338;BME280;61575;49.908;35.556;2024-03-07T05:16:46;99964.81;;;-1.96;70.12
73338;BME280;61575;49.908;35.556;2024-03-07T05:20:04;99969.44;;;-1.84;70.16
73338;BME280;61575;49.908;35.556;2024-03-07T05:23:12;99954.31;;;-1.81;69.61
73338;BME280;61575;49.908;35.556;2024-03-07T05:26:18;99959.75;;;-1.84;69.41
73338;BME280;61575;49.908;35.556;2024-03-07T05:29:20;99952.53;;;-1.80;69.69
73338;BME280;61575;49.908;35.556;2024-03-07T05:32:24;99959.69;;;-1.82;69.66
73338;BME280;61575;49.908;35.556;2024-03-07T05:35:29;99957.19;;;-1.85;69.61
73338;BME280;61575;49.908;35.556;2024-03-07T05:38:32;99951.16;;;-1.87;69.30
73338;BME280;61575;49.908;35.556;2024-03-07T05:41:34;99965.72;;;-1.80;69.37
73338;BME280;61575;49.908;35.556;2024-03-07T05:44:36;99964.25;;;-1.86;69.42
73338;BME280;61575;49.908;35.556;2024-03-07T05:47:38;99962.31;;;-1.82;69.41
73338;BME280;61575;49.908;35.556;2024-03-07T05:50:40;99964.78;;;-1.79;69.27
73338;BME280;61575;49.908;35.556;2024-03-07T05:53:44;99968.63;;;-1.69;69.24
73338;BME280;61575;49.908;35.556;2024-03-07T05:56:46;99970.94;;;-1.63;69.13
73338;BME280;61575;49.908;35.556;2024-03-07T05:59:48;99972.38;;;-1.57;68.45
73338;BME280;61575;49.908;35.556;2024-03-07T06:02:50;99970.69;;;-1.58;68.60
73338;BME280;61575;49.908;35.556;2024-03-07T06:05:52;99975.38;;;-1.48;68.76
73338;BME280;61575;49.908;35.556;2024-03-07T06:08:55;99970.09;;;-1.48;68.34
73338;BME280;61575;49.908;35.556;2024-03-07T06:11:58;99978.84;;;-1.47;68.13
73338;BME280;61575;49.908;35.556;2024-03-07T06:15:06;99976.16;;;-1.46;67.95
73338;BME280;61575;49.908;35.556;2024-03-07T06:18:08;99975.28;;;-1.46;67.69
73338;BME280;61575;49.908;35.556;2024-03-07T06:21:10;99977.84;;;-1.45;67.79
73338;BME280;61575;49.908;35.556;2024-03-07T06:24:12;99978.13;;;-1.33;68.01
73338;BME280;61575;49.908;35.556;2024-03-07T06:27:17;99976.25;;;-1.31;67.63
73338;BME280;61575;49.908;35.556;2024-03-07T06:30:29;99978.88;;;-1.31;67.52
73338;BME280;61575;49.908;35.556;2024-03-07T06:33:32;99982.97;;;-1.26;67.42
73338;BME280;61575;49.908;35.556;2024-03-07T06:36:35;99973.78;;;-1.19;67.13
73338;BME280;61575;49.908;35.556;2024-03-07T06:39:37;99969.69;;;-1.24;66.95
73338;BME280;61575;49.908;35.556;2024-03-07T06:42:39;99979.81;;;-1.17;67.10
73338;BME280;61575;49.908;35.556;2024-03-07T06:45:41;99977.50;;;-1.07;66.91
73338;BME280;61575;49.908;35.556;2024-03-07T06:48:43;99983.28;;;-1.00;66.94
73338;BME280;61575;49.908;35.556;2024-03-07T06:51:46;99984.38;;;-1.04;66.71
73338;BME280;61575;49.908;35.556;2024-03-07T06:54:48;99984.28;;;-1.03;66.85
73338;BME280;61575;49.908;35.556;2024-03-07T06:57:50;99984.03;;;-0.98;66.82
73338;BME280;61575;49.908;35.556;2024-03-07T07:00:52;99987.69;;;-1.01;66.88
73338;BME280;61575;49.908;35.556;2024-03-07T07:03:58;99995.25;;;-0.95;66.78
73338;BME280;61575;49.908;35.556;2024-03-07T07:07:05;99994.31;;;-0.94;66.67
73338;BME280;61575;49.908;35.556;2024-03-07T07:10:08;99991.34;;;-0.88;66.66
73338;BME280;61575;49.908;35.556;2024-03-07T07:13:17;99991.00;;;-0.82;66.42
73338;BME280;61575;49.908;35.556;2024-03-07T07:16:20;99986.66;;;-0.83;66.29
73338;BME280;61575;49.908;35.556;2024-03-07T07:19:22;99984.63;;;-0.78;66.35
73338;BME280;61575;49.908;35.556;2024-03-07T07:22:25;99987.66;;;-0.69;66.42
73338;BME280;61575;49.908;35.556;2024-03-07T07:25:28;99987.22;;;-0.62;66.16
73338;BME280;61575;49.908;35.556;2024-03-07T07:28:30;99990.81;;;-0.63;66.19
73338;BME280;61575;49.908;35.556;2024-03-07T07:31:32;99991.84;;;-0.65;66.62
73338;BME280;61575;49.908;35.556;2024-03-07T07:34:34;99994.66;;;-0.68;66.46
73338;BME280;61575;49.908;35.556;2024-03-07T07:37:43;99988.78;;;-0.73;66.41
73338;BME280;61575;49.908;35.556;2024-03-07T07:40:45;99990.84;;;-0.79;66.95
73338;BME280;61575;49.908;35.556;2024-03-07T07:43:48;99989.88;;;-0.78;66.77
73338;BME280;61575;49.908;35.556;2024-03-07T07:46:49;99990.66;;;-0.91;66.97
73338;BME280;61575;49.908;35.556;2024-03-07T07:49:52;99997.91;;;-0.95;67.18
73338;BME280;61575;49.908;35.556;2024-03-07T07:52:56;100001.91;;;-0.88;66.98
73338;BME280;61575;49.908;35.556;2024-03-07T07:55:59;100001.03;;;-0.88;67.03
73338;BME280;61575;49.908;35.556;2024-03-07T07:59:01;100001.28;;;-0.77;67.12
73338;BME280;61575;49.908;35.556;2024-03-07T08:02:06;100003.94;;;-0.77;66.95
73338;BME280;61575;49.908;35.556;2024-03-07T08:05:08;100002.72;;;-0.71;67.13
73338;BME280;61575;49.908;35.556;2024-03-07T08:08:12;100007.41;;;-0.77;67.07
73338;BME280;61575;49.908;35.556;2024-03-07T08:11:18;100009.28;;;-0.79;67.13
73338;BME280;61575;49.908;35.556;2024-03-07T08:14:20;100004.59;;;-0.73;67.14
73338;BME280;61575;49.908;35.556;2024-03-07T08:17:24;100017.09;;;-0.61;67.00
73338;BME280;61575;49.908;35.556;2024-03-07T08:20:27;100018.53;;;-0.56;66.80
73338;BME280;61575;49.908;35.556;2024-03-07T08:23:30;100001.94;;;-0.58;67.12
73338;BME280;61575;49.908;35.556;2024-03-07T08:26:33;100013.00;;;-0.51;67.20
73338;BME280;61575;49.908;35.556;2024-03-07T08:29:35;100012.66;;;-0.45;66.68
73338;BME280;61575;49.908;35.556;2024-03-07T08:32:38;100021.50;;;-0.46;66.88
73338;BME280;61575;49.908;35.556;2024-03-07T08:35:40;100014.53;;;-0.47;66.62
73338;BME280;61575;49.908;35.556;2024-03-07T08:38:42;100019.44;;;-0.41;66.59
73338;BME280;61575;49.908;35.556;2024-03-07T08:41:45;100020.28;;;-0.40;66.96
73338;BME280;61575;49.908;35.556;2024-03-07T08:44:48;100020.63;;;-0.31;67.02
73338;BME280;61575;49.908;35.556;2024-03-07T08:47:52;100020.47;;;-0.43;67.00
73338;BME280;61575;49.908;35.556;2024-03-07T08:50:56;100017.31;;;-0.34;66.92
73338;BME280;61575;49.908;35.556;2024-03-07T08:53:58;100017.97;;;-0.31;67.35
73338;BME280;61575;49.908;35.556;2024-03-07T08:57:02;100020.03;;;-0.36;67.17
73338;BME280;61575;49.908;35.556;2024-03-07T09:00:05;100015.25;;;-0.29;67.14
73338;BME280;61575;49.908;35.556;2024-03-07T09:06:49;100015.69;;;-0.37;67.36
73338;BME280;61575;49.908;35.556;2024-03-07T09:09:51;100017.31;;;-0.34;67.45
73338;BME280;61575;49.908;35.556;2024-03-07T09:12:53;100026.91;;;-0.33;67.07
73338;BME280;61575;49.908;35.556;2024-03-07T09:15:57;100021.81;;;-0.36;66.50
73338;BME280;61575;49.908;35.556;2024-03-07T09:18:58;100020.63;;;-0.31;66.59
73338;BME280;61575;49.908;35.556;2024-03-07T09:22:01;100018.88;;;-0.16;66.41
73338;BME280;61575;49.908;35.556;2024-03-07T09:25:05;100022.19;;;-0.13;66.22
73338;BME280;61575;49.908;35.556;2024-03-07T09:28:07;100021.06;;;-0.08;66.34
73338;BME280;61575;49.908;35.556;2024-03-07T09:31:10;100023.69;;;-0.08;66.76
73338;BME280;61575;49.908;35.556;2024-03-07T09:34:13;100014.00;;;-0.08;66.84
73338;BME280;61575;49.908;35.556;2024-03-07T09:37:16;100014.75;;;-0.06;66.45
73338;BME280;61575;49.908;35.556;2024-03-07T09:40:19;100013.69;;;-0.18;66.84
73338;BME280;61575;49.908;35.556;2024-03-07T09:43:28;100007.72;;;-0.21;66.72
73338;BME280;61575;49.908;35.556;2024-03-07T09:46:31;100015.28;;;-0.15;66.62
73338;BME280;61575;49.908;35.556;2024-03-07T09:49:35;100010.31;;;-0.05;66.84
73338;BME280;61575;49.908;35.556;2024-03-07T09:52:41;100010.81;;;0.01;66.17
73338;BME280;61575;49.908;35.556;2024-03-07T09:55:45;100017.34;;;0.10;66.30
73338;BME280;61575;49.908;35.556;2024-03-07T09:58:51;100009.03;;;0.02;66.03
73338;BME280;61575;49.908;35.556;2024-03-07T10:01:59;100014.88;;;0.07;66.13
73338;BME280;61575;49.908;35.556;2024-03-07T10:05:04;100013.09;;;0.22;65.88
73338;BME280;61575;49.908;35.556;2024-03-07T10:08:07;100004.97;;;0.10;65.68
73338;BME280;61575;49.908;35.556;2024-03-07T10:11:10;100012.06;;;0.10;65.81
73338;BME280;61575;49.908;35.556;2024-03-07T10:14:13;99999.41;;;0.15;65.99
73338;BME280;61575;49.908;35.556;2024-03-07T10:17:17;100003.19;;;0.25;65.66
73338;BME280;61575;49.908;35.556;2024-03-07T10:20:20;100008.50;;;0.25;65.50
73338;BME280;61575;49.908;35.556;2024-03-07T10:23:24;100001.50;;;0.24;66.03
73338;BME280;61575;49.908;35.556;2024-03-07T10:26:27;100004.63;;;0.31;66.05
73338;BME280;61575;49.908;35.556;2024-03-07T10:29:29;100002.16;;;0.28;65.55
73338;BME280;61575;49.908;35.556;2024-03-07T10:32:32;100007.28;;;0.31;65.51
73338;BME280;61575;49.908;35.556;2024-03-07T10:35:36;100006.41;;;0.30;65.69
73338;BME280;61575;49.908;35.556;2024-03-07T10:38:39;100006.97;;;0.35;65.38
73338;BME280;61575;49.908;35.556;2024-03-07T10:41:48;99999.81;;;0.37;65.34
73338;BME280;61575;49.908;35.556;2024-03-07T10:44:55;100015.75;;;0.36;65.42
73338;BME280;61575;49.908;35.556;2024-03-07T10:48:02;99998.69;;;0.41;65.69
73338;BME280;61575;49.908;35.556;2024-03-07T10:51:24;100008.78;;;0.35;64.99
73338;BME280;61575;49.908;35.556;2024-03-07T10:54:33;100003.97;;;0.41;65.41
73338;BME280;61575;49.908;35.556;2024-03-07T10:57:50;100007.19;;;0.32;65.16
73338;BME280;61575;49.908;35.556;2024-03-07T11:00:56;100009.91;;;0.31;65.32
73338;BME280;61575;49.908;35.556;2024-03-07T11:04:00;99998.97;;;0.37;65.21
73338;BME280;61575;49.908;35.556;2024-03-07T11:07:09;99998.69;;;0.41;64.96
73338;BME280;61575;49.908;35.556;2024-03-07T11:10:13;99992.75;;;0.38;64.65
73338;BME280;61575;49.908;35.556;2024-03-07T11:13:17;99997.75;;;0.42;64.55
73338;BME280;61575;49.908;35.556;2024-03-07T11:16:20;99990.66;;;0.43;64.11
73338;BME280;61575;49.908;35.556;2024-03-07T11:19:25;99991.59;;;0.42;64.04
73338;BME280;61575;49.908;35.556;2024-03-07T11:22:32;99978.97;;;0.47;63.80
73338;BME280;61575;49.908;35.556;2024-03-07T11:25:36;99982.84;;;0.41;63.13
73338;BME280;61575;49.908;35.556;2024-03-07T11:28:42;99985.38;;;0.43;62.56
73338;BME280;61575;49.908;35.556;2024-03-07T11:31:45;99978.88;;;0.48;62.48
73338;BME280;61575;49.908;35.556;2024-03-07T11:34:47;99979.53;;;0.66;62.36
73338;BME280;61575;49.908;35.556;2024-03-07T11:37:49;99978.56;;;0.81;62.06
73338;BME280;61575;49.908;35.556;2024-03-07T11:40:53;99972.78;;;0.89;61.41
73338;BME280;61575;49.908;35.556;2024-03-07T11:43:58;99970.09;;;1.03;61.07
73338;BME280;61575;49.908;35.556;2024-03-07T11:47:02;99969.91;;;1.06;60.69
73338;BME280;61575;49.908;35.556;2024-03-07T11:50:10;99980.28;;;1.09;60.96
73338;BME280;61575;49.908;35.556;2024-03-07T11:53:16;99972.34;;;1.09;61.13
73338;BME280;61575;49.908;35.556;2024-03-07T11:56:19;99975.34;;;1.17;61.24
73338;BME280;61575;49.908;35.556;2024-03-07T11:59:22;99972.97;;;1.27;60.75
73338;BME280;61575;49.908;35.556;2024-03-07T12:02:25;99974.00;;;1.25;60.58
73338;BME280;61575;49.908;35.556;2024-03-07T12:05:27;99977.69;;;1.22;60.09
73338;BME280;61575;49.908;35.556;2024-03-07T12:08:29;99969.25;;;1.30;59.77
73338;BME280;61575;49.908;35.556;2024-03-07T12:11:31;99968.06;;;1.21;59.77
73338;BME280;61575;49.908;35.556;2024-03-07T12:14:33;99964.88;;;1.16;59.58
73338;BME280;61575;49.908;35.556;2024-03-07T12:17:36;99963.63;;;1.22;59.87
73338;BME280;61575;49.908;35.556;2024-03-07T12:20:41;99962.38;;;1.27;59.77
73338;BME280;61575;49.908;35.556;2024-03-07T12:23:43;99968.53;;;1.28;59.76
73338;BME280;61575;49.908;35.556;2024-03-07T12:26:45;99955.19;;;1.29;59.76
73338;BME280;61575;49.908;35.556;2024-03-07T12:29:47;99968.13;;;1.34;59.76
73338;BME280;61575;49.908;35.556;2024-03-07T12:32:51;99957.97;;;1.40;59.34
73338;BME280;61575;49.908;35.556;2024-03-07T12:35:54;99960.13;;;1.48;59.18
73338;BME280;61575;49.908;35.556;2024-03-07T12:39:08;99960.75;;;1.52;58.93
73338;BME280;61575;49.908;35.556;2024-03-07T12:42:27;99958.88;;;1.54;59.05
73338;BME280;61575;49.908;35.556;2024-03-07T12:45:32;99951.34;;;1.47;59.38
73338;BME280;61575;49.908;35.556;2024-03-07T12:48:36;99963.91;;;1.44;59.33
73338;BME280;61575;49.908;35.556;2024-03-07T12:51:43;99959.34;;;1.33;59.51
73338;BME280;61575;49.908;35.556;2024-03-07T12:54:45;99951.59;;;1.30;59.60
73338;BME280;61575;49.908;35.556;2024-03-07T12:57:50;99953.53;;;1.14;59.61
73338;BME280;61575;49.908;35.556;2024-03-07T13:00:52;99960.63;;;1.13;59.86
73338;BME280;61575;49.908;35.556;2024-03-07T13:03:58;99955.84;;;1.06;60.16
73338;BME280;61575;49.908;35.556;2024-03-07T13:07:00;99955.75;;;1.07;60.15
73338;BME280;61575;49.908;35.556;2024-03-07T13:10:06;99960.56;;;1.01;60.42
73338;BME280;61575;49.908;35.556;2024-03-07T13:13:09;99948.50;;;0.97;60.22
73338;BME280;61575;49.908;35.556;2024-03-07T13:16:12;99957.50;;;0.80;60.46
73338;BME280;61575;49.908;35.556;2024-03-07T13:19:16;99954.00;;;0.79;60.89
73338;BME280;61575;49.908;35.556;2024-03-07T13:22:22;99946.72;;;0.83;60.84
73338;BME280;61575;49.908;35.556;2024-03-07T13:25:27;99951.47;;;0.78;60.85
73338;BME280;61575;49.908;35.556;2024-03-07T13:28:33;99952.41;;;0.77;60.63
73338;BME280;61575;49.908;35.556;2024-03-07T13:31:35;99950.16;;;0.71;60.61
73338;BME280;61575;49.908;35.556;2024-03-07T13:34:37;99954.78;;;0.67;60.57
73338;BME280;61575;49.908;35.556;2024-03-07T13:37:39;99944.22;;;0.67;60.92
73338;BME280;61575;49.908;35.556;2024-03-07T13:40:42;99941.19;;;0.73;60.73
73338;BME280;61575;49.908;35.556;2024-03-07T13:43:45;99949.97;;;0.74;60.61
73338;BME280;61575;49.908;35.556;2024-03-07T13:46:47;99949.88;;;0.75;60.53
73338;BME280;61575;49.908;35.556;2024-03-07T13:49:49;99953.47;;;0.74;60.74
73338;BME280;61575;49.908;35.556;2024-03-07T13:52:52;99947.97;;;0.77;60.68
73338;BME280;61575;49.908;35.556;2024-03-07T13:59:54;99935.25;;;0.56;60.93
73338;BME280;61575;49.908;35.556;2024-03-07T14:09:50;99938.56;;;0.45;60.79
73338;BME280;61575;49.908;35.556;2024-03-07T14:19:51;99938.50;;;0.32;61.50
73338;BME280;61575;49.908;35.556;2024-03-07T14:27:01;99931.59;;;0.30;61.39
73338;BME280;61575;49.908;35.556;2024-03-07T14:37:17;99942.06;;;0.17;61.47
73338;BME280;61575;49.908;35.556;2024-03-07T14:40:22;99942.75;;;0.20;61.79
73338;BME280;61575;49.908;35.556;2024-03-07T14:43:24;99934.91;;;0.19;62.00
73338;BME280;61575;49.908;35.556;2024-03-07T14:46:27;99948.13;;;0.19;62.34
73338;BME280;61575;49.908;35.556;2024-03-07T14:49:29;99931.41;;;0.18;62.29
73338;BME280;61575;49.908;35.556;2024-03-07T14:52:31;99941.50;;;0.12;62.27
73338;BME280;61575;49.908;35.556;2024-03-07T14:55:34;99934.44;;;0.12;62.40
73338;BME280;61575;49.908;35.556;2024-03-07T14:58:37;99931.13;;;0.09;62.68
73338;BME280;61575;49.908;35.556;2024-03-07T15:01:40;99935.38;;;0.11;62.72
73338;BME280;61575;49.908;35.556;2024-03-07T15:04:42;99935.75;;;0.05;62.69
73338;BME280;61575;49.908;35.556;2024-03-07T15:07:47;99936.69;;;0.04;62.56
73338;BME280;61575;49.908;35.556;2024-03-07T15:11:02;99943.00;;;0.02;62.76
73338;BME280;61575;49.908;35.556;2024-03-07T15:14:11;99928.88;;;0.03;62.58
73338;BME280;61575;49.908;35.556;2024-03-07T15:17:14;99934.91;;;0.05;62.53
73338;BME280;61575;49.908;35.556;2024-03-07T15:20:16;99940.28;;;0.03;63.21
73338;BME280;61575;49.908;35.556;2024-03-07T15:23:25;99943.09;;;0.00;63.09
73338;BME280;61575;49.908;35.556;2024-03-07T15:26:27;99947.31;;;-0.12;62.81
73338;BME280;61575;49.908;35.556;2024-03-07T15:29:30;99941.19;;;-0.12;62.91
73338;BME280;61575;49.908;35.556;2024-03-07T15:32:33;99956.94;;;-0.10;63.14
73338;BME280;61575;49.908;35.556;2024-03-07T15:35:35;99947.25;;;-0.10;63.28
73338;BME280;61575;49.908;35.556;2024-03-07T15:38:37;99949.03;;;-0.10;63.13
73338;BME280;61575;49.908;35.556;2024-03-07T15:41:41;99952.31;;;-0.21;62.93
73338;BME280;61575;49.908;35.556;2024-03-07T15:44:43;99947.56;;;-0.30;63.17
73338;BME280;61575;49.908;35.556;2024-03-07T15:47:58;99952.75;;;-0.29;63.14
73338;BME280;61575;49.908;35.556;2024-03-07T15:51:11;99956.75;;;-0.22;63.56
73338;BME280;61575;49.908;35.556;2024-03-07T15:54:14;99956.75;;;-0.22;63.25
73338;BME280;61575;49.908;35.556;2024-03-07T15:57:19;99956.16;;;-0.27;63.57
73338;BME280;61575;49.908;35.556;2024-03-07T16:00:24;99959.28;;;-0.20;63.43
73338;BME280;61575;49.908;35.556;2024-03-07T16:03:27;99958.25;;;-0.18;63.36
73338;BME280;61575;49.908;35.556;2024-03-07T16:06:30;99957.69;;;-0.23;63.41
73338;BME280;61575;49.908;35.556;2024-03-07T16:09:32;99959.28;;;-0.20;63.75
73338;BME280;61575;49.908;35.556;2024-03-07T16:12:34;99964.75;;;-0.23;63.57
73338;BME280;61575;49.908;35.556;2024-03-07T16:15:37;99957.09;;;-0.28;63.62
73338;BME280;61575;49.908;35.556;2024-03-07T16:18:43;99958.03;;;-0.29;63.71
73338;BME280;61575;49.908;35.556;2024-03-07T16:21:45;99964.25;;;-0.30;63.98
73338;BME280;61575;49.908;35.556;2024-03-07T16:24:47;99964.63;;;-0.36;64.47
73338;BME280;61575;49.908;35.556;2024-03-07T16:27:50;99968.00;;;-0.34;64.60
73338;BME280;61575;49.908;35.556;2024-03-07T16:30:53;99965.47;;;-0.35;64.30
73338;BME280;61575;49.908;35.556;2024-03-07T16:33:58;99967.34;;;-0.37;64.59